Mont-de-Marsan (BA 118) Air Base

Airport
ICAO code: 
LFBM
Summary
ICAO Region: 
EUR
Territory: 
Location: 
, Aquitaine
Serving: 
Mont-de-marsan
Elevation: 
203 ft
Coordinates: 
Aerial View: 
43° 54' 42.001" N, 0° 30' 27" W
Metar
Observation
LFBM 302200Z AUTO 00000KT 8000 OVC047 05/04 Q1024 TEMPO 0800 FG
Station
Mont-De-Marsan
Date/Time
2021-11-30 22:00:00
Wind direction
Wind speed
00 kts
Lowest cloud amount
overcast
Temperature
5°C
Dew point
4°C
Humidity
93%
QNH
1024 hPa
Weather condition
n/a

Runways

Designator Length Width Surface Rops
9/27 3603 45 PEM No/No
Airport map: 
Aerial View: 

SKYbrary Partners:

Safety knowledge contributed by: